sensor_id;sensor_type;location;lat;lon;timestamp;P1;durP1;ratioP1;P2;durP2;ratioP2
19525;SDS011;9907;42.676;26.348;2023-02-25T00:01:25;15.37;;;11.43;;
19525;SDS011;9907;42.676;26.348;2023-02-25T00:03:55;15.63;;;12.33;;
19525;SDS011;9907;42.676;26.348;2023-02-25T00:06:21;19.07;;;12.80;;
19525;SDS011;9907;42.676;26.348;2023-02-25T00:08:47;16.07;;;11.80;;
19525;SDS011;9907;42.676;26.348;2023-02-25T00:11:15;16.63;;;13.07;;
19525;SDS011;9907;42.676;26.348;2023-02-25T00:13:44;15.60;;;12.27;;
19525;SDS011;9907;42.676;26.348;2023-02-25T00:16:13;14.10;;;11.77;;
19525;SDS011;9907;42.676;26.348;2023-02-25T00:18:43;15.97;;;11.67;;
19525;SDS011;9907;42.676;26.348;2023-02-25T00:21:10;18.57;;;13.57;;
19525;SDS011;9907;42.676;26.348;2023-02-25T00:23:41;20.33;;;13.03;;
19525;SDS011;9907;42.676;26.348;2023-02-25T00:26:07;22.60;;;14.37;;
19525;SDS011;9907;42.676;26.348;2023-02-25T00:28:33;16.03;;;13.60;;
19525;SDS011;9907;42.676;26.348;2023-02-25T00:30:59;19.23;;;13.57;;
19525;SDS011;9907;42.676;26.348;2023-02-25T00:33:29;21.20;;;15.83;;
19525;SDS011;9907;42.676;26.348;2023-02-25T00:35:55;23.07;;;16.23;;
19525;SDS011;9907;42.676;26.348;2023-02-25T00:38:20;25.13;;;18.47;;
19525;SDS011;9907;42.676;26.348;2023-02-25T00:40:46;23.17;;;17.53;;
19525;SDS011;9907;42.676;26.348;2023-02-25T00:43:12;24.97;;;17.90;;
19525;SDS011;9907;42.676;26.348;2023-02-25T00:45:38;21.17;;;16.57;;
19525;SDS011;9907;42.676;26.348;2023-02-25T00:48:09;26.17;;;17.53;;
19525;SDS011;9907;42.676;26.348;2023-02-25T00:50:36;25.07;;;17.13;;
19525;SDS011;9907;42.676;26.348;2023-02-25T00:53:03;22.33;;;17.00;;
19525;SDS011;9907;42.676;26.348;2023-02-25T00:55:30;21.90;;;16.23;;
19525;SDS011;9907;42.676;26.348;2023-02-25T00:57:58;23.53;;;17.30;;
19525;SDS011;9907;42.676;26.348;2023-02-25T01:00:25;22.37;;;16.73;;
19525;SDS011;9907;42.676;26.348;2023-02-25T01:02:52;23.07;;;17.00;;
19525;SDS011;9907;42.676;26.348;2023-02-25T01:05:23;24.43;;;16.63;;
19525;SDS011;9907;42.676;26.348;2023-02-25T01:07:48;23.73;;;16.70;;
19525;SDS011;9907;42.676;26.348;2023-02-25T01:10:14;23.33;;;16.50;;
19525;SDS011;9907;42.676;26.348;2023-02-25T01:12:40;19.43;;;15.63;;
19525;SDS011;9907;42.676;26.348;2023-02-25T01:15:08;22.40;;;15.20;;
19525;SDS011;9907;42.676;26.348;2023-02-25T01:17:34;20.23;;;14.63;;
19525;SDS011;9907;42.676;26.348;2023-02-25T01:20:02;22.27;;;15.63;;
19525;SDS011;9907;42.676;26.348;2023-02-25T01:22:30;19.47;;;15.73;;
19525;SDS011;9907;42.676;26.348;2023-02-25T01:24:56;18.13;;;14.47;;
19525;SDS011;9907;42.676;26.348;2023-02-25T01:27:21;20.97;;;15.40;;
19525;SDS011;9907;42.676;26.348;2023-02-25T01:29:47;16.83;;;14.20;;
19525;SDS011;9907;42.676;26.348;2023-02-25T01:32:12;16.80;;;14.37;;
19525;SDS011;9907;42.676;26.348;2023-02-25T01:34:39;15.70;;;12.57;;
19525;SDS011;9907;42.676;26.348;2023-02-25T01:37:05;15.50;;;12.40;;
19525;SDS011;9907;42.676;26.348;2023-02-25T01:39:31;16.03;;;12.03;;
19525;SDS011;9907;42.676;26.348;2023-02-25T01:41:59;17.70;;;12.67;;
19525;SDS011;9907;42.676;26.348;2023-02-25T01:46:58;15.40;;;11.60;;
19525;SDS011;9907;42.676;26.348;2023-02-25T01:49:32;15.37;;;12.27;;
19525;SDS011;9907;42.676;26.348;2023-02-25T01:52:08;14.27;;;11.40;;
19525;SDS011;9907;42.676;26.348;2023-02-25T01:54:38;17.30;;;12.47;;
19525;SDS011;9907;42.676;26.348;2023-02-25T01:57:05;16.20;;;12.47;;
19525;SDS011;9907;42.676;26.348;2023-02-25T01:59:34;14.97;;;12.10;;
19525;SDS011;9907;42.676;26.348;2023-02-25T02:02:01;16.27;;;11.67;;
19525;SDS011;9907;42.676;26.348;2023-02-25T02:04:26;15.33;;;12.07;;
19525;SDS011;9907;42.676;26.348;2023-02-25T02:06:53;16.33;;;11.13;;
19525;SDS011;9907;42.676;26.348;2023-02-25T02:09:21;19.77;;;13.57;;
19525;SDS011;9907;42.676;26.348;2023-02-25T02:11:51;16.97;;;12.63;;
19525;SDS011;9907;42.676;26.348;2023-02-25T02:14:19;15.23;;;11.97;;
19525;SDS011;9907;42.676;26.348;2023-02-25T02:17:23;16.17;;;13.37;;
19525;SDS011;9907;42.676;26.348;2023-02-25T02:20:05;16.27;;;13.03;;
19525;SDS011;9907;42.676;26.348;2023-02-25T02:34:15;18.77;;;12.93;;
19525;SDS011;9907;42.676;26.348;2023-02-25T02:45:28;19.50;;;14.70;;
19525;SDS011;9907;42.676;26.348;2023-02-25T02:48:07;24.60;;;15.67;;
19525;SDS011;9907;42.676;26.348;2023-02-25T02:50:49;21.87;;;15.73;;
19525;SDS011;9907;42.676;26.348;2023-02-25T02:53:21;22.33;;;16.37;;
19525;SDS011;9907;42.676;26.348;2023-02-25T02:55:55;22.37;;;16.10;;
19525;SDS011;9907;42.676;26.348;2023-02-25T02:58:25;29.13;;;21.13;;
19525;SDS011;9907;42.676;26.348;2023-02-25T03:00:57;29.40;;;20.77;;
19525;SDS011;9907;42.676;26.348;2023-02-25T03:03:28;29.27;;;21.17;;
19525;SDS011;9907;42.676;26.348;2023-02-25T03:06:04;28.30;;;20.83;;
19525;SDS011;9907;42.676;26.348;2023-02-25T03:08:49;24.30;;;18.13;;
19525;SDS011;9907;42.676;26.348;2023-02-25T03:11:20;21.53;;;17.60;;
19525;SDS011;9907;42.676;26.348;2023-02-25T03:13:47;20.70;;;15.43;;
19525;SDS011;9907;42.676;26.348;2023-02-25T03:16:20;21.63;;;15.20;;
19525;SDS011;9907;42.676;26.348;2023-02-25T03:21:46;22.70;;;16.23;;
19525;SDS011;9907;42.676;26.348;2023-02-25T03:24:18;19.20;;;14.50;;
19525;SDS011;9907;42.676;26.348;2023-02-25T03:26:50;18.90;;;14.77;;
19525;SDS011;9907;42.676;26.348;2023-02-25T03:29:17;17.33;;;14.13;;
19525;SDS011;9907;42.676;26.348;2023-02-25T03:31:50;16.17;;;13.80;;
19525;SDS011;9907;42.676;26.348;2023-02-25T03:34:29;24.83;;;15.00;;
19525;SDS011;9907;42.676;26.348;2023-02-25T03:37:01;16.93;;;12.77;;
19525;SDS011;9907;42.676;26.348;2023-02-25T03:39:37;19.13;;;13.73;;
19525;SDS011;9907;42.676;26.348;2023-02-25T03:42:16;19.67;;;14.97;;
19525;SDS011;9907;42.676;26.348;2023-02-25T03:44:50;17.23;;;13.80;;
19525;SDS011;9907;42.676;26.348;2023-02-25T03:47:21;17.47;;;13.43;;
19525;SDS011;9907;42.676;26.348;2023-02-25T03:49:55;18.20;;;13.13;;
19525;SDS011;9907;42.676;26.348;2023-02-25T03:52:26;19.13;;;13.57;;
19525;SDS011;9907;42.676;26.348;2023-02-25T03:54:53;18.33;;;14.07;;
19525;SDS011;9907;42.676;26.348;2023-02-25T03:57:21;21.30;;;14.27;;
19525;SDS011;9907;42.676;26.348;2023-02-25T03:59:50;19.43;;;13.97;;
19525;SDS011;9907;42.676;26.348;2023-02-25T04:02:22;17.13;;;13.07;;
19525;SDS011;9907;42.676;26.348;2023-02-25T04:04:52;18.87;;;13.63;;
19525;SDS011;9907;42.676;26.348;2023-02-25T04:07:18;23.00;;;14.70;;
19525;SDS011;9907;42.676;26.348;2023-02-25T04:09:43;20.27;;;14.80;;
19525;SDS011;9907;42.676;26.348;2023-02-25T04:12:09;18.03;;;13.87;;
19525;SDS011;9907;42.676;26.348;2023-02-25T04:14:34;20.63;;;13.73;;
19525;SDS011;9907;42.676;26.348;2023-02-25T04:17:00;15.70;;;14.00;;
19525;SDS011;9907;42.676;26.348;2023-02-25T04:19:25;19.83;;;13.87;;
19525;SDS011;9907;42.676;26.348;2023-02-25T04:21:52;17.13;;;13.57;;
19525;SDS011;9907;42.676;26.348;2023-02-25T04:24:18;17.63;;;14.00;;
19525;SDS011;9907;42.676;26.348;2023-02-25T04:26:43;18.90;;;14.63;;
19525;SDS011;9907;42.676;26.348;2023-02-25T04:29:09;21.83;;;14.73;;
19525;SDS011;9907;42.676;26.348;2023-02-25T04:31:34;19.67;;;14.23;;
19525;SDS011;9907;42.676;26.348;2023-02-25T04:33:59;18.43;;;14.57;;
19525;SDS011;9907;42.676;26.348;2023-02-25T04:36:26;20.33;;;15.57;;
19525;SDS011;9907;42.676;26.348;2023-02-25T04:39:00;22.23;;;15.37;;
19525;SDS011;9907;42.676;26.348;2023-02-25T04:41:29;22.77;;;15.53;;
19525;SDS011;9907;42.676;26.348;2023-02-25T04:43:58;21.87;;;15.97;;
19525;SDS011;9907;42.676;26.348;2023-02-25T04:46:24;24.03;;;16.80;;
19525;SDS011;9907;42.676;26.348;2023-02-25T04:48:49;25.63;;;18.83;;
19525;SDS011;9907;42.676;26.348;2023-02-25T04:51:15;28.43;;;20.40;;
19525;SDS011;9907;42.676;26.348;2023-02-25T04:53:40;27.37;;;20.07;;
19525;SDS011;9907;42.676;26.348;2023-02-25T04:56:07;24.20;;;17.37;;
19525;SDS011;9907;42.676;26.348;2023-02-25T04:58:33;24.03;;;17.40;;
19525;SDS011;9907;42.676;26.348;2023-02-25T05:01:00;22.47;;;19.43;;
19525;SDS011;9907;42.676;26.348;2023-02-25T05:03:27;25.47;;;18.87;;
19525;SDS011;9907;42.676;26.348;2023-02-25T05:05:53;24.77;;;18.20;;
19525;SDS011;9907;42.676;26.348;2023-02-25T05:08:19;25.17;;;18.40;;
19525;SDS011;9907;42.676;26.348;2023-02-25T05:10:45;25.80;;;18.70;;
19525;SDS011;9907;42.676;26.348;2023-02-25T05:13:10;29.33;;;19.60;;
19525;SDS011;9907;42.676;26.348;2023-02-25T05:15:36;27.00;;;20.17;;
19525;SDS011;9907;42.676;26.348;2023-02-25T05:18:01;25.53;;;19.10;;
19525;SDS011;9907;42.676;26.348;2023-02-25T05:20:27;25.77;;;19.77;;
19525;SDS011;9907;42.676;26.348;2023-02-25T05:22:53;31.10;;;23.20;;
19525;SDS011;9907;42.676;26.348;2023-02-25T05:25:19;29.17;;;19.73;;
19525;SDS011;9907;42.676;26.348;2023-02-25T05:27:44;29.53;;;21.50;;
19525;SDS011;9907;42.676;26.348;2023-02-25T05:30:10;32.00;;;23.87;;
19525;SDS011;9907;42.676;26.348;2023-02-25T05:32:36;29.57;;;21.73;;
19525;SDS011;9907;42.676;26.348;2023-02-25T05:35:02;23.20;;;18.47;;
19525;SDS011;9907;42.676;26.348;2023-02-25T05:37:32;30.33;;;20.90;;
19525;SDS011;9907;42.676;26.348;2023-02-25T05:39:58;25.50;;;19.63;;
19525;SDS011;9907;42.676;26.348;2023-02-25T05:42:27;25.43;;;20.27;;
19525;SDS011;9907;42.676;26.348;2023-02-25T05:44:52;27.03;;;19.90;;
19525;SDS011;9907;42.676;26.348;2023-02-25T05:47:18;21.60;;;16.60;;
19525;SDS011;9907;42.676;26.348;2023-02-25T05:49:44;21.90;;;17.10;;
19525;SDS011;9907;42.676;26.348;2023-02-25T05:52:10;22.37;;;16.70;;
19525;SDS011;9907;42.676;26.348;2023-02-25T05:54:37;20.73;;;16.57;;
19525;SDS011;9907;42.676;26.348;2023-02-25T05:57:02;20.93;;;15.97;;
19525;SDS011;9907;42.676;26.348;2023-02-25T05:59:28;24.33;;;17.10;;
19525;SDS011;9907;42.676;26.348;2023-02-25T06:01:56;23.13;;;18.60;;
19525;SDS011;9907;42.676;26.348;2023-02-25T06:04:23;25.33;;;16.87;;
19525;SDS011;9907;42.676;26.348;2023-02-25T06:06:49;21.37;;;16.30;;
19525;SDS011;9907;42.676;26.348;2023-02-25T06:09:24;20.63;;;15.83;;
19525;SDS011;9907;42.676;26.348;2023-02-25T06:11:53;21.77;;;15.23;;
19525;SDS011;9907;42.676;26.348;2023-02-25T06:14:19;18.37;;;15.70;;
19525;SDS011;9907;42.676;26.348;2023-02-25T06:16:44;20.97;;;16.27;;
19525;SDS011;9907;42.676;26.348;2023-02-25T06:19:10;22.17;;;17.10;;
19525;SDS011;9907;42.676;26.348;2023-02-25T06:21:36;25.93;;;15.63;;
19525;SDS011;9907;42.676;26.348;2023-02-25T06:24:02;23.53;;;16.97;;
19525;SDS011;9907;42.676;26.348;2023-02-25T06:26:28;20.73;;;16.53;;
19525;SDS011;9907;42.676;26.348;2023-02-25T06:28:54;23.73;;;17.67;;
19525;SDS011;9907;42.676;26.348;2023-02-25T06:31:21;28.63;;;17.70;;
19525;SDS011;9907;42.676;26.348;2023-02-25T06:33:47;18.70;;;14.60;;
19525;SDS011;9907;42.676;26.348;2023-02-25T06:36:15;22.17;;;15.87;;
19525;SDS011;9907;42.676;26.348;2023-02-25T06:38:46;21.90;;;16.17;;
19525;SDS011;9907;42.676;26.348;2023-02-25T06:41:13;21.70;;;17.03;;
19525;SDS011;9907;42.676;26.348;2023-02-25T06:43:40;25.17;;;16.27;;
19525;SDS011;9907;42.676;26.348;2023-02-25T06:46:07;21.10;;;16.17;;
19525;SDS011;9907;42.676;26.348;2023-02-25T06:48:34;21.63;;;16.33;;
19525;SDS011;9907;42.676;26.348;2023-02-25T06:51:00;21.43;;;15.67;;
19525;SDS011;9907;42.676;26.348;2023-02-25T06:53:28;22.40;;;15.57;;
19525;SDS011;9907;42.676;26.348;2023-02-25T06:55:54;19.50;;;15.40;;
19525;SDS011;9907;42.676;26.348;2023-02-25T06:58:21;17.63;;;15.03;;
19525;SDS011;9907;42.676;26.348;2023-02-25T07:00:47;23.43;;;15.70;;
19525;SDS011;9907;42.676;26.348;2023-02-25T07:03:13;23.03;;;17.03;;
19525;SDS011;9907;42.676;26.348;2023-02-25T07:05:39;22.30;;;17.00;;
19525;SDS011;9907;42.676;26.348;2023-02-25T07:08:04;20.80;;;16.57;;
19525;SDS011;9907;42.676;26.348;2023-02-25T07:10:31;22.30;;;17.23;;
19525;SDS011;9907;42.676;26.348;2023-02-25T07:12:59;25.43;;;16.67;;
19525;SDS011;9907;42.676;26.348;2023-02-25T07:15:25;22.47;;;17.23;;
19525;SDS011;9907;42.676;26.348;2023-02-25T07:17:51;26.57;;;19.13;;
19525;SDS011;9907;42.676;26.348;2023-02-25T07:20:17;34.17;;;24.50;;
19525;SDS011;9907;42.676;26.348;2023-02-25T07:22:43;37.97;;;26.77;;
19525;SDS011;9907;42.676;26.348;2023-02-25T07:25:09;40.53;;;31.90;;
19525;SDS011;9907;42.676;26.348;2023-02-25T07:27:41;42.47;;;31.40;;
19525;SDS011;9907;42.676;26.348;2023-02-25T07:30:08;45.47;;;33.20;;
19525;SDS011;9907;42.676;26.348;2023-02-25T07:32:34;46.83;;;32.23;;
19525;SDS011;9907;42.676;26.348;2023-02-25T07:35:00;38.47;;;28.83;;
19525;SDS011;9907;42.676;26.348;2023-02-25T07:37:26;38.07;;;28.90;;
19525;SDS011;9907;42.676;26.348;2023-02-25T07:39:53;39.90;;;30.03;;
19525;SDS011;9907;42.676;26.348;2023-02-25T07:42:18;42.80;;;33.20;;
19525;SDS011;9907;42.676;26.348;2023-02-25T07:44:44;43.60;;;34.20;;
19525;SDS011;9907;42.676;26.348;2023-02-25T07:47:12;44.57;;;30.73;;
19525;SDS011;9907;42.676;26.348;2023-02-25T07:49:38;36.53;;;26.07;;
19525;SDS011;9907;42.676;26.348;2023-02-25T07:52:03;37.27;;;25.33;;
19525;SDS011;9907;42.676;26.348;2023-02-25T07:54:29;30.43;;;22.77;;
19525;SDS011;9907;42.676;26.348;2023-02-25T07:56:54;26.73;;;21.63;;
19525;SDS011;9907;42.676;26.348;2023-02-25T07:59:20;28.33;;;21.57;;
19525;SDS011;9907;42.676;26.348;2023-02-25T08:01:47;30.27;;;22.30;;
19525;SDS011;9907;42.676;26.348;2023-02-25T08:04:19;30.10;;;21.60;;
19525;SDS011;9907;42.676;26.348;2023-02-25T08:06:44;30.87;;;22.33;;
19525;SDS011;9907;42.676;26.348;2023-02-25T08:09:11;30.30;;;22.20;;
19525;SDS011;9907;42.676;26.348;2023-02-25T08:11:37;28.63;;;21.30;;
19525;SDS011;9907;42.676;26.348;2023-02-25T08:14:03;30.67;;;23.03;;
19525;SDS011;9907;42.676;26.348;2023-02-25T08:16:29;31.27;;;24.73;;
19525;SDS011;9907;42.676;26.348;2023-02-25T08:18:56;36.80;;;30.67;;
19525;SDS011;9907;42.676;26.348;2023-02-25T08:21:22;33.47;;;26.20;;
19525;SDS011;9907;42.676;26.348;2023-02-25T08:23:49;40.10;;;28.57;;
19525;SDS011;9907;42.676;26.348;2023-02-25T08:26:16;37.27;;;27.57;;
19525;SDS011;9907;42.676;26.348;2023-02-25T08:28:42;34.20;;;25.23;;
19525;SDS011;9907;42.676;26.348;2023-02-25T08:31:09;35.87;;;27.20;;
19525;SDS011;9907;42.676;26.348;2023-02-25T08:33:38;35.67;;;25.57;;
19525;SDS011;9907;42.676;26.348;2023-02-25T08:36:11;33.07;;;23.13;;
19525;SDS011;9907;42.676;26.348;2023-02-25T08:38:40;28.10;;;20.27;;
19525;SDS011;9907;42.676;26.348;2023-02-25T08:41:06;27.00;;;20.07;;
19525;SDS011;9907;42.676;26.348;2023-02-25T08:43:33;25.80;;;19.87;;
19525;SDS011;9907;42.676;26.348;2023-02-25T08:46:00;27.53;;;21.00;;
19525;SDS011;9907;42.676;26.348;2023-02-25T08:48:25;23.47;;;19.33;;
19525;SDS011;9907;42.676;26.348;2023-02-25T08:50:54;24.63;;;17.77;;
19525;SDS011;9907;42.676;26.348;2023-02-25T08:53:20;24.60;;;17.67;;
19525;SDS011;9907;42.676;26.348;2023-02-25T08:55:47;21.03;;;15.67;;
19525;SDS011;9907;42.676;26.348;2023-02-25T08:58:13;23.03;;;16.20;;
19525;SDS011;9907;42.676;26.348;2023-02-25T09:00:38;18.70;;;14.17;;
19525;SDS011;9907;42.676;26.348;2023-02-25T09:03:07;21.57;;;13.97;;
19525;SDS011;9907;42.676;26.348;2023-02-25T09:05:32;20.97;;;15.03;;
19525;SDS011;9907;42.676;26.348;2023-02-25T09:07:58;16.43;;;14.63;;
19525;SDS011;9907;42.676;26.348;2023-02-25T09:10:23;21.70;;;15.13;;
19525;SDS011;9907;42.676;26.348;2023-02-25T09:12:55;35.93;;;18.37;;
19525;SDS011;9907;42.676;26.348;2023-02-25T09:15:20;21.23;;;14.93;;
19525;SDS011;9907;42.676;26.348;2023-02-25T09:17:46;19.17;;;14.10;;
19525;SDS011;9907;42.676;26.348;2023-02-25T09:20:17;18.97;;;13.93;;
19525;SDS011;9907;42.676;26.348;2023-02-25T09:22:42;22.57;;;14.00;;
19525;SDS011;9907;42.676;26.348;2023-02-25T09:25:08;17.60;;;14.43;;
19525;SDS011;9907;42.676;26.348;2023-02-25T09:27:37;22.30;;;16.40;;
19525;SDS011;9907;42.676;26.348;2023-02-25T09:30:03;22.30;;;15.33;;
19525;SDS011;9907;42.676;26.348;2023-02-25T09:32:29;22.53;;;18.70;;
19525;SDS011;9907;42.676;26.348;2023-02-25T09:34:55;25.67;;;19.37;;
19525;SDS011;9907;42.676;26.348;2023-02-25T09:37:20;22.13;;;16.17;;
19525;SDS011;9907;42.676;26.348;2023-02-25T09:39:46;24.17;;;14.50;;
19525;SDS011;9907;42.676;26.348;2023-02-25T09:42:16;20.97;;;14.73;;
19525;SDS011;9907;42.676;26.348;2023-02-25T09:44:46;19.23;;;15.07;;
19525;SDS011;9907;42.676;26.348;2023-02-25T09:47:27;20.50;;;15.83;;
19525;SDS011;9907;42.676;26.348;2023-02-25T09:50:13;17.10;;;14.23;;
19525;SDS011;9907;42.676;26.348;2023-02-25T09:52:49;19.00;;;14.90;;
19525;SDS011;9907;42.676;26.348;2023-02-25T09:58:23;19.90;;;13.80;;
19525;SDS011;9907;42.676;26.348;2023-02-25T10:06:16;22.20;;;14.57;;
19525;SDS011;9907;42.676;26.348;2023-02-25T10:12:13;23.87;;;16.83;;
19525;SDS011;9907;42.676;26.348;2023-02-25T10:18:11;20.57;;;13.83;;
19525;SDS011;9907;42.676;26.348;2023-02-25T10:26:21;18.33;;;13.73;;
19525;SDS011;9907;42.676;26.348;2023-02-25T10:28:54;19.83;;;14.30;;
19525;SDS011;9907;42.676;26.348;2023-02-25T10:31:23;21.63;;;14.10;;
19525;SDS011;9907;42.676;26.348;2023-02-25T10:33:50;18.87;;;13.37;;
19525;SDS011;9907;42.676;26.348;2023-02-25T10:36:21;16.13;;;12.30;;
19525;SDS011;9907;42.676;26.348;2023-02-25T10:38:53;18.60;;;13.17;;
19525;SDS011;9907;42.676;26.348;2023-02-25T10:41:20;16.87;;;13.00;;
19525;SDS011;9907;42.676;26.348;2023-02-25T10:43:48;20.93;;;13.57;;
19525;SDS011;9907;42.676;26.348;2023-02-25T10:49:14;20.27;;;12.80;;
19525;SDS011;9907;42.676;26.348;2023-02-25T10:54:45;20.97;;;13.03;;
19525;SDS011;9907;42.676;26.348;2023-02-25T10:57:16;21.23;;;15.67;;
19525;SDS011;9907;42.676;26.348;2023-02-25T11:00:00;24.27;;;14.70;;
19525;SDS011;9907;42.676;26.348;2023-02-25T11:02:29;16.50;;;11.77;;
19525;SDS011;9907;42.676;26.348;2023-02-25T11:05:01;18.20;;;13.00;;
19525;SDS011;9907;42.676;26.348;2023-02-25T11:12:45;15.37;;;11.83;;
19525;SDS011;9907;42.676;26.348;2023-02-25T11:17:52;25.33;;;13.30;;
19525;SDS011;9907;42.676;26.348;2023-02-25T11:20:26;16.77;;;11.47;;
19525;SDS011;9907;42.676;26.348;2023-02-25T11:22:54;18.37;;;12.83;;
19525;SDS011;9907;42.676;26.348;2023-02-25T11:25:40;19.43;;;11.30;;
19525;SDS011;9907;42.676;26.348;2023-02-25T11:28:17;19.03;;;10.23;;
19525;SDS011;9907;42.676;26.348;2023-02-25T11:30:50;16.13;;;11.60;;
19525;SDS011;9907;42.676;26.348;2023-02-25T11:33:27;15.47;;;10.90;;
19525;SDS011;9907;42.676;26.348;2023-02-25T11:35:58;16.50;;;10.83;;
19525;SDS011;9907;42.676;26.348;2023-02-25T11:40:53;17.53;;;12.60;;
19525;SDS011;9907;42.676;26.348;2023-02-25T11:43:40;17.13;;;11.67;;
19525;SDS011;9907;42.676;26.348;2023-02-25T11:46:25;15.33;;;11.43;;
19525;SDS011;9907;42.676;26.348;2023-02-25T11:49:05;14.30;;;11.37;;
19525;SDS011;9907;42.676;26.348;2023-02-25T11:51:46;23.77;;;13.60;;
19525;SDS011;9907;42.676;26.348;2023-02-25T11:54:21;16.20;;;11.23;;
19525;SDS011;9907;42.676;26.348;2023-02-25T11:59:30;18.90;;;11.33;;
19525;SDS011;9907;42.676;26.348;2023-02-25T12:24:43;12.43;;;9.30;;
19525;SDS011;9907;42.676;26.348;2023-02-25T12:27:44;13.13;;;9.97;;
19525;SDS011;9907;42.676;26.348;2023-02-25T12:45:24;17.47;;;10.03;;
19525;SDS011;9907;42.676;26.348;2023-02-25T13:01:30;14.53;;;10.57;;
19525;SDS011;9907;42.676;26.348;2023-02-25T13:12:27;14.90;;;9.47;;
19525;SDS011;9907;42.676;26.348;2023-02-25T13:23:38;14.53;;;9.87;;
19525;SDS011;9907;42.676;26.348;2023-02-25T13:29:02;15.93;;;9.43;;
19525;SDS011;9907;42.676;26.348;2023-02-25T13:34:37;13.43;;;8.80;;
19525;SDS011;9907;42.676;26.348;2023-02-25T13:38:15;14.70;;;9.77;;
19525;SDS011;9907;42.676;26.348;2023-02-25T13:59:10;16.90;;;9.90;;
19525;SDS011;9907;42.676;26.348;2023-02-25T14:01:51;16.67;;;9.77;;
19525;SDS011;9907;42.676;26.348;2023-02-25T14:20:24;19.27;;;10.23;;
19525;SDS011;9907;42.676;26.348;2023-02-25T14:22:59;15.47;;;10.30;;
19525;SDS011;9907;42.676;26.348;2023-02-25T14:31:02;13.97;;;9.67;;
19525;SDS011;9907;42.676;26.348;2023-02-25T14:44:33;16.77;;;10.07;;
19525;SDS011;9907;42.676;26.348;2023-02-25T14:47:12;16.23;;;9.27;;
19525;SDS011;9907;42.676;26.348;2023-02-25T14:49:53;18.70;;;15.20;;
19525;SDS011;9907;42.676;26.348;2023-02-25T14:58:25;19.87;;;12.83;;
19525;SDS011;9907;42.676;26.348;2023-02-25T15:01:16;20.17;;;12.10;;
19525;SDS011;9907;42.676;26.348;2023-02-25T15:21:42;19.10;;;11.30;;
19525;SDS011;9907;42.676;26.348;2023-02-25T15:24:08;17.67;;;11.37;;
19525;SDS011;9907;42.676;26.348;2023-02-25T15:26:43;20.43;;;12.37;;
19525;SDS011;9907;42.676;26.348;2023-02-25T15:34:55;20.30;;;15.03;;
19525;SDS011;9907;42.676;26.348;2023-02-25T15:37:31;21.60;;;12.53;;
19525;SDS011;9907;42.676;26.348;2023-02-25T15:42:41;21.10;;;12.20;;
19525;SDS011;9907;42.676;26.348;2023-02-25T15:48:37;22.47;;;12.23;;
19525;SDS011;9907;42.676;26.348;2023-02-25T15:50:52;21.90;;;14.13;;
19525;SDS011;9907;42.676;26.348;2023-02-25T15:55:49;20.13;;;10.10;;
19525;SDS011;9907;42.676;26.348;2023-02-25T16:00:50;17.67;;;9.83;;
19525;SDS011;9907;42.676;26.348;2023-02-25T16:06:00;19.00;;;9.97;;
19525;SDS011;9907;42.676;26.348;2023-02-25T16:08:33;19.87;;;10.50;;
19525;SDS011;9907;42.676;26.348;2023-02-25T16:11:02;20.93;;;10.97;;
19525;SDS011;9907;42.676;26.348;2023-02-25T16:13:31;20.37;;;10.77;;
19525;SDS011;9907;42.676;26.348;2023-02-25T16:15:59;20.30;;;10.90;;
19525;SDS011;9907;42.676;26.348;2023-02-25T16:18:34;21.00;;;11.67;;
19525;SDS011;9907;42.676;26.348;2023-02-25T16:21:05;18.57;;;11.17;;
19525;SDS011;9907;42.676;26.348;2023-02-25T16:23:38;18.33;;;11.57;;
19525;SDS011;9907;42.676;26.348;2023-02-25T16:37:12;36.40;;;14.20;;
19525;SDS011;9907;42.676;26.348;2023-02-25T16:39:41;19.00;;;11.20;;
19525;SDS011;9907;42.676;26.348;2023-02-25T16:42:10;19.97;;;10.17;;
19525;SDS011;9907;42.676;26.348;2023-02-25T16:44:38;15.70;;;10.30;;
19525;SDS011;9907;42.676;26.348;2023-02-25T16:47:22;17.30;;;11.20;;
19525;SDS011;9907;42.676;26.348;2023-02-25T16:49:53;26.87;;;15.23;;
19525;SDS011;9907;42.676;26.348;2023-02-25T16:52:24;40.03;;;20.87;;
19525;SDS011;9907;42.676;26.348;2023-02-25T16:55:00;21.60;;;12.70;;
19525;SDS011;9907;42.676;26.348;2023-02-25T16:57:29;21.10;;;10.63;;
19525;SDS011;9907;42.676;26.348;2023-02-25T17:02:45;17.60;;;10.73;;
19525;SDS011;9907;42.676;26.348;2023-02-25T17:05:23;14.67;;;9.27;;
19525;SDS011;9907;42.676;26.348;2023-02-25T17:08:00;14.27;;;9.27;;
19525;SDS011;9907;42.676;26.348;2023-02-25T17:10:32;17.20;;;8.97;;
19525;SDS011;9907;42.676;26.348;2023-02-25T17:13:12;13.30;;;8.23;;
19525;SDS011;9907;42.676;26.348;2023-02-25T17:15:44;16.93;;;9.10;;
19525;SDS011;9907;42.676;26.348;2023-02-25T17:20:42;19.50;;;9.30;;
19525;SDS011;9907;42.676;26.348;2023-02-25T17:23:09;21.13;;;9.30;;
19525;SDS011;9907;42.676;26.348;2023-02-25T17:25:38;14.47;;;9.17;;
19525;SDS011;9907;42.676;26.348;2023-02-25T17:28:06;21.80;;;9.80;;
19525;SDS011;9907;42.676;26.348;2023-02-25T17:30:42;18.23;;;10.47;;
19525;SDS011;9907;42.676;26.348;2023-02-25T17:33:18;18.73;;;10.63;;
19525;SDS011;9907;42.676;26.348;2023-02-25T17:35:46;17.13;;;10.60;;
19525;SDS011;9907;42.676;26.348;2023-02-25T17:38:14;17.17;;;10.57;;
19525;SDS011;9907;42.676;26.348;2023-02-25T17:40:44;13.33;;;10.30;;
19525;SDS011;9907;42.676;26.348;2023-02-25T17:43:53;22.73;;;10.57;;
19525;SDS011;9907;42.676;26.348;2023-02-25T17:46:26;14.37;;;9.77;;
19525;SDS011;9907;42.676;26.348;2023-02-25T17:48:52;15.63;;;10.17;;
19525;SDS011;9907;42.676;26.348;2023-02-25T17:51:36;15.17;;;9.73;;
19525;SDS011;9907;42.676;26.348;2023-02-25T17:54:15;23.13;;;11.50;;
19525;SDS011;9907;42.676;26.348;2023-02-25T17:56:44;20.10;;;12.67;;
19525;SDS011;9907;42.676;26.348;2023-02-25T18:09:57;34.83;;;18.00;;
19525;SDS011;9907;42.676;26.348;2023-02-25T18:12:36;22.10;;;13.23;;
19525;SDS011;9907;42.676;26.348;2023-02-25T18:15:05;20.53;;;13.00;;
19525;SDS011;9907;42.676;26.348;2023-02-25T18:17:46;21.57;;;12.63;;
19525;SDS011;9907;42.676;26.348;2023-02-25T18:25:41;24.43;;;12.23;;
19525;SDS011;9907;42.676;26.348;2023-02-25T18:28:12;28.03;;;14.63;;
19525;SDS011;9907;42.676;26.348;2023-02-25T18:30:41;27.10;;;13.30;;
19525;SDS011;9907;42.676;26.348;2023-02-25T18:33:07;31.00;;;16.07;;
19525;SDS011;9907;42.676;26.348;2023-02-25T18:35:35;45.80;;;39.00;;
19525;SDS011;9907;42.676;26.348;2023-02-25T18:38:03;542.70;;;387.40;;
19525;SDS011;9907;42.676;26.348;2023-02-25T18:40:37;1999.90;;;999.90;;
19525;SDS011;9907;42.676;26.348;2023-02-25T18:43:04;830.17;;;524.70;;
19525;SDS011;9907;42.676;26.348;2023-02-25T18:45:31;1238.73;;;745.50;;
19525;SDS011;9907;42.676;26.348;2023-02-25T18:47:58;875.57;;;488.50;;
19525;SDS011;9907;42.676;26.348;2023-02-25T18:50:25;901.83;;;534.97;;
19525;SDS011;9907;42.676;26.348;2023-02-25T18:52:54;1999.90;;;939.87;;
19525;SDS011;9907;42.676;26.348;2023-02-25T18:55:24;1999.90;;;959.60;;
19525;SDS011;9907;42.676;26.348;2023-02-25T18:57:51;1999.90;;;963.93;;
19525;SDS011;9907;42.676;26.348;2023-02-25T19:00:20;1481.63;;;716.80;;
19525;SDS011;9907;42.676;26.348;2023-02-25T19:05:14;1354.43;;;600.70;;